sensor_id;sensor_type;location;lat;lon;timestamp;P1;durP1;ratioP1;P2;durP2;ratioP2
51806;SDS011;37865;51.304;9.536;2023-08-12T00:00:15;6.57;;;4.95;;
51806;SDS011;37865;51.304;9.536;2023-08-12T00:02:40;6.32;;;5.00;;
51806;SDS011;37865;51.304;9.536;2023-08-12T00:05:06;11.55;;;5.55;;
51806;SDS011;37865;51.304;9.536;2023-08-12T00:07:33;6.93;;;4.32;;
51806;SDS011;37865;51.304;9.536;2023-08-12T00:10:02;4.68;;;4.28;;
51806;SDS011;37865;51.304;9.536;2023-08-12T00:12:29;5.05;;;4.55;;
51806;SDS011;37865;51.304;9.536;2023-08-12T00:14:58;12.43;;;5.20;;
51806;SDS011;37865;51.304;9.536;2023-08-12T00:17:23;20.05;;;5.82;;
51806;SDS011;37865;51.304;9.536;2023-08-12T00:19:48;14.00;;;5.18;;
51806;SDS011;37865;51.304;9.536;2023-08-12T00:22:14;4.50;;;4.10;;
51806;SDS011;37865;51.304;9.536;2023-08-12T00:24:39;8.50;;;4.43;;
51806;SDS011;37865;51.304;9.536;2023-08-12T00:27:05;15.60;;;5.13;;
51806;SDS011;37865;51.304;9.536;2023-08-12T00:29:31;9.18;;;4.72;;
51806;SDS011;37865;51.304;9.536;2023-08-12T00:31:57;4.90;;;4.45;;
51806;SDS011;37865;51.304;9.536;2023-08-12T00:34:22;6.22;;;4.75;;
51806;SDS011;37865;51.304;9.536;2023-08-12T00:36:47;6.95;;;4.22;;
51806;SDS011;37865;51.304;9.536;2023-08-12T00:39:13;8.30;;;5.10;;
51806;SDS011;37865;51.304;9.536;2023-08-12T00:41:39;18.63;;;4.63;;
51806;SDS011;37865;51.304;9.536;2023-08-12T00:44:04;8.40;;;4.95;;
51806;SDS011;37865;51.304;9.536;2023-08-12T00:46:30;6.80;;;5.07;;
51806;SDS011;37865;51.304;9.536;2023-08-12T00:48:55;5.05;;;4.07;;
51806;SDS011;37865;51.304;9.536;2023-08-12T00:51:21;8.10;;;4.60;;
51806;SDS011;37865;51.304;9.536;2023-08-12T00:53:46;8.27;;;4.25;;
51806;SDS011;37865;51.304;9.536;2023-08-12T00:56:13;7.93;;;5.47;;
51806;SDS011;37865;51.304;9.536;2023-08-12T00:58:38;16.20;;;4.53;;
51806;SDS011;37865;51.304;9.536;2023-08-12T01:01:04;9.85;;;5.13;;
51806;SDS011;37865;51.304;9.536;2023-08-12T01:03:30;8.40;;;4.10;;
51806;SDS011;37865;51.304;9.536;2023-08-12T01:05:55;6.10;;;4.78;;
51806;SDS011;37865;51.304;9.536;2023-08-12T01:08:22;4.80;;;4.25;;
51806;SDS011;37865;51.304;9.536;2023-08-12T01:10:56;14.90;;;5.30;;
51806;SDS011;37865;51.304;9.536;2023-08-12T01:13:47;6.57;;;4.97;;
51806;SDS011;37865;51.304;9.536;2023-08-12T01:16:17;6.05;;;4.90;;
51806;SDS011;37865;51.304;9.536;2023-08-12T01:18:45;4.60;;;4.00;;
51806;SDS011;37865;51.304;9.536;2023-08-12T01:21:11;5.88;;;5.13;;
51806;SDS011;37865;51.304;9.536;2023-08-12T01:23:41;11.15;;;3.75;;
51806;SDS011;37865;51.304;9.536;2023-08-12T01:26:07;4.53;;;4.10;;
51806;SDS011;37865;51.304;9.536;2023-08-12T01:28:32;12.32;;;4.05;;
51806;SDS011;37865;51.304;9.536;2023-08-12T01:31:01;12.00;;;4.65;;
51806;SDS011;37865;51.304;9.536;2023-08-12T01:36:09;5.63;;;4.43;;
51806;SDS011;37865;51.304;9.536;2023-08-12T01:38:39;7.70;;;4.40;;
51806;SDS011;37865;51.304;9.536;2023-08-12T01:41:07;10.07;;;5.82;;
51806;SDS011;37865;51.304;9.536;2023-08-12T01:43:35;10.98;;;4.38;;
51806;SDS011;37865;51.304;9.536;2023-08-12T01:46:00;16.33;;;4.25;;
51806;SDS011;37865;51.304;9.536;2023-08-12T01:48:26;5.18;;;4.00;;
51806;SDS011;37865;51.304;9.536;2023-08-12T01:50:51;5.85;;;4.22;;
51806;SDS011;37865;51.304;9.536;2023-08-12T01:53:17;14.27;;;4.68;;
51806;SDS011;37865;51.304;9.536;2023-08-12T01:55:43;21.13;;;3.92;;
51806;SDS011;37865;51.304;9.536;2023-08-12T01:58:09;8.25;;;3.92;;
51806;SDS011;37865;51.304;9.536;2023-08-12T02:00:34;12.57;;;3.70;;
51806;SDS011;37865;51.304;9.536;2023-08-12T02:02:59;9.80;;;3.53;;
51806;SDS011;37865;51.304;9.536;2023-08-12T02:05:25;5.05;;;4.30;;
51806;SDS011;37865;51.304;9.536;2023-08-12T02:07:50;6.60;;;4.00;;
51806;SDS011;37865;51.304;9.536;2023-08-12T02:10:16;3.90;;;3.50;;
51806;SDS011;37865;51.304;9.536;2023-08-12T02:12:41;6.20;;;4.63;;
51806;SDS011;37865;51.304;9.536;2023-08-12T02:15:06;5.63;;;4.30;;
51806;SDS011;37865;51.304;9.536;2023-08-12T02:17:32;4.38;;;3.60;;
51806;SDS011;37865;51.304;9.536;2023-08-12T02:19:57;4.15;;;3.75;;
51806;SDS011;37865;51.304;9.536;2023-08-12T02:22:22;5.28;;;3.85;;
51806;SDS011;37865;51.304;9.536;2023-08-12T02:24:48;5.93;;;3.80;;
51806;SDS011;37865;51.304;9.536;2023-08-12T02:27:13;3.50;;;3.20;;
51806;SDS011;37865;51.304;9.536;2023-08-12T02:29:38;13.07;;;4.88;;
51806;SDS011;37865;51.304;9.536;2023-08-12T02:32:04;12.10;;;4.70;;
51806;SDS011;37865;51.304;9.536;2023-08-12T02:34:29;5.30;;;3.58;;
51806;SDS011;37865;51.304;9.536;2023-08-12T02:36:55;5.93;;;4.20;;
51806;SDS011;37865;51.304;9.536;2023-08-12T02:39:20;4.10;;;3.70;;
51806;SDS011;37865;51.304;9.536;2023-08-12T02:41:45;6.75;;;4.75;;
51806;SDS011;37865;51.304;9.536;2023-08-12T02:44:10;5.13;;;3.60;;
51806;SDS011;37865;51.304;9.536;2023-08-12T02:46:36;3.78;;;3.15;;
51806;SDS011;37865;51.304;9.536;2023-08-12T02:49:01;9.13;;;4.15;;
51806;SDS011;37865;51.304;9.536;2023-08-12T02:51:26;19.35;;;4.22;;
51806;SDS011;37865;51.304;9.536;2023-08-12T02:53:52;3.72;;;3.15;;
51806;SDS011;37865;51.304;9.536;2023-08-12T02:56:17;4.13;;;3.42;;
51806;SDS011;37865;51.304;9.536;2023-08-12T02:58:42;5.07;;;4.03;;
51806;SDS011;37865;51.304;9.536;2023-08-12T03:01:08;7.03;;;3.88;;
51806;SDS011;37865;51.304;9.536;2023-08-12T03:03:33;11.73;;;4.78;;
51806;SDS011;37865;51.304;9.536;2023-08-12T03:05:58;6.80;;;4.57;;
51806;SDS011;37865;51.304;9.536;2023-08-12T03:08:24;5.18;;;4.68;;
51806;SDS011;37865;51.304;9.536;2023-08-12T03:10:49;5.30;;;4.80;;
51806;SDS011;37865;51.304;9.536;2023-08-12T03:13:15;8.88;;;5.35;;
51806;SDS011;37865;51.304;9.536;2023-08-12T03:15:40;11.90;;;5.75;;
51806;SDS011;37865;51.304;9.536;2023-08-12T03:18:07;6.75;;;5.25;;
51806;SDS011;37865;51.304;9.536;2023-08-12T03:20:33;7.93;;;5.00;;
51806;SDS011;37865;51.304;9.536;2023-08-12T03:22:58;19.40;;;6.60;;
51806;SDS011;37865;51.304;9.536;2023-08-12T03:25:25;18.35;;;5.88;;
51806;SDS011;37865;51.304;9.536;2023-08-12T03:27:50;9.98;;;6.00;;
51806;SDS011;37865;51.304;9.536;2023-08-12T03:30:16;15.63;;;5.35;;
51806;SDS011;37865;51.304;9.536;2023-08-12T03:32:41;9.05;;;5.47;;
51806;SDS011;37865;51.304;9.536;2023-08-12T03:35:06;16.00;;;5.93;;
51806;SDS011;37865;51.304;9.536;2023-08-12T03:37:32;11.13;;;5.40;;
51806;SDS011;37865;51.304;9.536;2023-08-12T03:39:57;9.90;;;5.88;;
51806;SDS011;37865;51.304;9.536;2023-08-12T03:42:23;5.55;;;4.90;;
51806;SDS011;37865;51.304;9.536;2023-08-12T03:44:48;10.02;;;6.18;;
51806;SDS011;37865;51.304;9.536;2023-08-12T03:47:13;6.60;;;5.60;;
51806;SDS011;37865;51.304;9.536;2023-08-12T03:49:39;10.45;;;5.15;;
51806;SDS011;37865;51.304;9.536;2023-08-12T03:52:04;13.10;;;6.88;;
51806;SDS011;37865;51.304;9.536;2023-08-12T03:54:31;11.45;;;5.93;;
51806;SDS011;37865;51.304;9.536;2023-08-12T03:56:57;9.27;;;6.93;;
51806;SDS011;37865;51.304;9.536;2023-08-12T03:59:22;9.38;;;7.00;;
51806;SDS011;37865;51.304;9.536;2023-08-12T04:01:48;20.98;;;6.22;;
51806;SDS011;37865;51.304;9.536;2023-08-12T04:04:13;10.75;;;6.07;;
51806;SDS011;37865;51.304;9.536;2023-08-12T04:06:38;8.65;;;5.15;;
51806;SDS011;37865;51.304;9.536;2023-08-12T04:09:04;12.38;;;6.10;;
51806;SDS011;37865;51.304;9.536;2023-08-12T04:11:30;10.10;;;5.88;;
51806;SDS011;37865;51.304;9.536;2023-08-12T04:13:55;15.77;;;7.32;;
51806;SDS011;37865;51.304;9.536;2023-08-12T04:16:20;21.13;;;6.40;;
51806;SDS011;37865;51.304;9.536;2023-08-12T04:18:46;5.70;;;5.13;;
51806;SDS011;37865;51.304;9.536;2023-08-12T04:21:12;6.68;;;5.88;;
51806;SDS011;37865;51.304;9.536;2023-08-12T04:23:37;10.43;;;7.03;;
51806;SDS011;37865;51.304;9.536;2023-08-12T04:26:02;11.25;;;7.50;;
51806;SDS011;37865;51.304;9.536;2023-08-12T04:28:28;7.00;;;6.30;;
51806;SDS011;37865;51.304;9.536;2023-08-12T04:30:53;10.45;;;6.55;;
51806;SDS011;37865;51.304;9.536;2023-08-12T04:33:18;11.85;;;7.28;;
51806;SDS011;37865;51.304;9.536;2023-08-12T04:35:46;10.98;;;7.57;;
51806;SDS011;37865;51.304;9.536;2023-08-12T04:38:12;10.70;;;7.43;;
51806;SDS011;37865;51.304;9.536;2023-08-12T04:40:40;10.77;;;6.95;;
51806;SDS011;37865;51.304;9.536;2023-08-12T04:43:07;12.48;;;7.55;;
51806;SDS011;37865;51.304;9.536;2023-08-12T04:45:36;9.45;;;6.70;;
51806;SDS011;37865;51.304;9.536;2023-08-12T04:48:03;7.10;;;5.95;;
51806;SDS011;37865;51.304;9.536;2023-08-12T04:50:29;9.45;;;7.25;;
51806;SDS011;37865;51.304;9.536;2023-08-12T04:52:55;11.32;;;6.88;;
51806;SDS011;37865;51.304;9.536;2023-08-12T04:55:21;10.93;;;6.90;;
51806;SDS011;37865;51.304;9.536;2023-08-12T04:57:46;8.32;;;6.63;;
51806;SDS011;37865;51.304;9.536;2023-08-12T05:00:12;13.10;;;7.25;;
51806;SDS011;37865;51.304;9.536;2023-08-12T05:02:37;10.00;;;7.50;;
51806;SDS011;37865;51.304;9.536;2023-08-12T05:05:03;16.48;;;8.13;;
51806;SDS011;37865;51.304;9.536;2023-08-12T05:07:28;11.05;;;6.72;;
51806;SDS011;37865;51.304;9.536;2023-08-12T05:09:55;10.63;;;7.45;;
51806;SDS011;37865;51.304;9.536;2023-08-12T05:12:21;10.95;;;7.68;;
51806;SDS011;37865;51.304;9.536;2023-08-12T05:14:46;8.48;;;7.15;;
51806;SDS011;37865;51.304;9.536;2023-08-12T05:17:11;14.75;;;6.63;;
51806;SDS011;37865;51.304;9.536;2023-08-12T05:19:37;11.02;;;7.10;;
51806;SDS011;37865;51.304;9.536;2023-08-12T05:22:02;8.98;;;7.50;;
51806;SDS011;37865;51.304;9.536;2023-08-12T05:24:28;11.13;;;6.68;;
51806;SDS011;37865;51.304;9.536;2023-08-12T05:26:53;7.30;;;6.60;;
51806;SDS011;37865;51.304;9.536;2023-08-12T05:29:18;7.65;;;6.95;;
51806;SDS011;37865;51.304;9.536;2023-08-12T05:31:43;10.90;;;7.68;;
51806;SDS011;37865;51.304;9.536;2023-08-12T05:34:09;10.73;;;6.22;;
51806;SDS011;37865;51.304;9.536;2023-08-12T05:36:35;13.65;;;6.72;;
51806;SDS011;37865;51.304;9.536;2023-08-12T05:39:01;15.02;;;8.63;;
51806;SDS011;37865;51.304;9.536;2023-08-12T05:41:26;17.35;;;7.38;;
51806;SDS011;37865;51.304;9.536;2023-08-12T05:43:52;17.20;;;9.38;;
51806;SDS011;37865;51.304;9.536;2023-08-12T05:46:17;10.98;;;6.88;;
51806;SDS011;37865;51.304;9.536;2023-08-12T05:48:42;12.30;;;7.18;;
51806;SDS011;37865;51.304;9.536;2023-08-12T05:51:08;8.98;;;7.75;;
51806;SDS011;37865;51.304;9.536;2023-08-12T05:53:33;25.60;;;7.43;;
51806;SDS011;37865;51.304;9.536;2023-08-12T05:55:58;8.48;;;7.30;;
51806;SDS011;37865;51.304;9.536;2023-08-12T05:58:24;8.48;;;7.50;;
51806;SDS011;37865;51.304;9.536;2023-08-12T06:00:49;19.45;;;7.75;;
51806;SDS011;37865;51.304;9.536;2023-08-12T06:03:15;13.10;;;7.28;;
51806;SDS011;37865;51.304;9.536;2023-08-12T06:05:41;9.70;;;8.32;;
51806;SDS011;37865;51.304;9.536;2023-08-12T06:08:08;22.85;;;7.40;;
51806;SDS011;37865;51.304;9.536;2023-08-12T06:10:33;10.55;;;7.05;;
51806;SDS011;37865;51.304;9.536;2023-08-12T06:12:59;15.40;;;6.80;;
51806;SDS011;37865;51.304;9.536;2023-08-12T06:15:25;11.27;;;7.07;;
51806;SDS011;37865;51.304;9.536;2023-08-12T06:17:50;11.43;;;7.90;;
51806;SDS011;37865;51.304;9.536;2023-08-12T06:20:15;8.38;;;6.88;;
51806;SDS011;37865;51.304;9.536;2023-08-12T06:22:41;8.82;;;6.68;;
51806;SDS011;37865;51.304;9.536;2023-08-12T06:25:06;8.30;;;6.95;;
51806;SDS011;37865;51.304;9.536;2023-08-12T06:27:32;12.27;;;7.28;;
51806;SDS011;37865;51.304;9.536;2023-08-12T06:29:57;17.77;;;8.20;;
51806;SDS011;37865;51.304;9.536;2023-08-12T06:32:23;13.95;;;6.97;;
51806;SDS011;37865;51.304;9.536;2023-08-12T06:34:49;16.05;;;6.82;;
51806;SDS011;37865;51.304;9.536;2023-08-12T06:37:14;8.43;;;6.10;;
51806;SDS011;37865;51.304;9.536;2023-08-12T06:39:40;11.45;;;7.43;;
51806;SDS011;37865;51.304;9.536;2023-08-12T06:42:05;12.25;;;5.95;;
51806;SDS011;37865;51.304;9.536;2023-08-12T06:44:30;8.45;;;6.97;;
51806;SDS011;37865;51.304;9.536;2023-08-12T06:46:56;22.92;;;8.95;;
51806;SDS011;37865;51.304;9.536;2023-08-12T06:49:21;16.67;;;8.60;;
51806;SDS011;37865;51.304;9.536;2023-08-12T06:51:46;12.50;;;9.27;;
51806;SDS011;37865;51.304;9.536;2023-08-12T06:54:12;11.15;;;7.38;;
51806;SDS011;37865;51.304;9.536;2023-08-12T06:56:37;19.38;;;7.97;;
51806;SDS011;37865;51.304;9.536;2023-08-12T06:59:02;11.13;;;7.93;;
51806;SDS011;37865;51.304;9.536;2023-08-12T07:01:28;14.93;;;7.72;;
51806;SDS011;37865;51.304;9.536;2023-08-12T07:03:53;9.00;;;7.43;;
51806;SDS011;37865;51.304;9.536;2023-08-12T07:06:18;15.32;;;6.95;;
51806;SDS011;37865;51.304;9.536;2023-08-12T07:08:43;9.45;;;6.88;;
51806;SDS011;37865;51.304;9.536;2023-08-12T07:11:09;9.32;;;6.28;;
51806;SDS011;37865;51.304;9.536;2023-08-12T07:13:34;12.25;;;7.05;;
51806;SDS011;37865;51.304;9.536;2023-08-12T07:16:00;6.55;;;5.95;;
51806;SDS011;37865;51.304;9.536;2023-08-12T07:18:25;8.90;;;5.97;;
51806;SDS011;37865;51.304;9.536;2023-08-12T07:20:51;14.75;;;7.22;;
51806;SDS011;37865;51.304;9.536;2023-08-12T07:23:16;8.48;;;6.28;;
51806;SDS011;37865;51.304;9.536;2023-08-12T07:25:41;13.68;;;6.90;;
51806;SDS011;37865;51.304;9.536;2023-08-12T07:28:07;11.63;;;7.50;;
51806;SDS011;37865;51.304;9.536;2023-08-12T07:30:34;11.48;;;8.70;;
51806;SDS011;37865;51.304;9.536;2023-08-12T07:33:00;10.98;;;7.20;;
51806;SDS011;37865;51.304;9.536;2023-08-12T07:35:26;8.77;;;7.90;;
51806;SDS011;37865;51.304;9.536;2023-08-12T07:37:51;10.77;;;7.35;;
51806;SDS011;37865;51.304;9.536;2023-08-12T07:40:16;12.85;;;7.30;;
51806;SDS011;37865;51.304;9.536;2023-08-12T07:42:42;9.82;;;7.18;;
51806;SDS011;37865;51.304;9.536;2023-08-12T07:45:07;14.85;;;8.88;;
51806;SDS011;37865;51.304;9.536;2023-08-12T07:47:33;13.20;;;9.68;;
51806;SDS011;37865;51.304;9.536;2023-08-12T07:49:59;11.07;;;8.25;;
51806;SDS011;37865;51.304;9.536;2023-08-12T07:52:24;18.23;;;7.82;;
51806;SDS011;37865;51.304;9.536;2023-08-12T07:54:50;12.98;;;7.63;;
51806;SDS011;37865;51.304;9.536;2023-08-12T07:57:15;8.20;;;6.95;;
51806;SDS011;37865;51.304;9.536;2023-08-12T07:59:41;14.90;;;7.70;;
51806;SDS011;37865;51.304;9.536;2023-08-12T08:02:06;8.02;;;6.80;;
51806;SDS011;37865;51.304;9.536;2023-08-12T08:04:31;8.38;;;7.57;;
51806;SDS011;37865;51.304;9.536;2023-08-12T08:06:57;8.82;;;7.65;;
51806;SDS011;37865;51.304;9.536;2023-08-12T08:09:22;11.32;;;8.07;;
51806;SDS011;37865;51.304;9.536;2023-08-12T08:11:47;8.60;;;7.65;;
51806;SDS011;37865;51.304;9.536;2023-08-12T08:14:12;17.13;;;6.72;;
51806;SDS011;37865;51.304;9.536;2023-08-12T08:16:38;10.75;;;7.57;;
51806;SDS011;37865;51.304;9.536;2023-08-12T08:19:05;14.55;;;6.60;;
51806;SDS011;37865;51.304;9.536;2023-08-12T08:21:30;9.30;;;6.45;;
51806;SDS011;37865;51.304;9.536;2023-08-12T08:23:55;11.20;;;5.78;;
51806;SDS011;37865;51.304;9.536;2023-08-12T08:26:21;8.88;;;6.78;;
51806;SDS011;37865;51.304;9.536;2023-08-12T08:28:46;6.85;;;6.00;;
51806;SDS011;37865;51.304;9.536;2023-08-12T08:31:11;9.07;;;5.53;;
51806;SDS011;37865;51.304;9.536;2023-08-12T08:33:37;7.45;;;5.65;;
51806;SDS011;37865;51.304;9.536;2023-08-12T08:36:02;7.07;;;5.70;;
51806;SDS011;37865;51.304;9.536;2023-08-12T08:38:27;10.18;;;5.78;;
51806;SDS011;37865;51.304;9.536;2023-08-12T08:40:53;7.70;;;6.32;;
51806;SDS011;37865;51.304;9.536;2023-08-12T08:43:21;8.25;;;5.32;;
51806;SDS011;37865;51.304;9.536;2023-08-12T08:45:52;16.48;;;6.25;;
51806;SDS011;37865;51.304;9.536;2023-08-12T08:48:19;9.50;;;5.97;;
51806;SDS011;37865;51.304;9.536;2023-08-12T08:50:45;10.50;;;6.45;;
51806;SDS011;37865;51.304;9.536;2023-08-12T08:53:11;7.40;;;5.93;;
51806;SDS011;37865;51.304;9.536;2023-08-12T08:55:38;8.05;;;5.50;;
51806;SDS011;37865;51.304;9.536;2023-08-12T08:58:05;7.18;;;4.95;;
51806;SDS011;37865;51.304;9.536;2023-08-12T09:00:31;12.90;;;5.38;;
51806;SDS011;37865;51.304;9.536;2023-08-12T09:02:56;4.45;;;4.05;;
51806;SDS011;37865;51.304;9.536;2023-08-12T09:05:22;4.03;;;3.53;;
51806;SDS011;37865;51.304;9.536;2023-08-12T09:07:48;8.18;;;4.55;;
51806;SDS011;37865;51.304;9.536;2023-08-12T09:10:14;8.95;;;4.10;;
51806;SDS011;37865;51.304;9.536;2023-08-12T09:12:42;6.20;;;4.85;;
51806;SDS011;37865;51.304;9.536;2023-08-12T09:15:08;6.55;;;5.07;;
51806;SDS011;37865;51.304;9.536;2023-08-12T09:17:34;4.88;;;4.32;;
51806;SDS011;37865;51.304;9.536;2023-08-12T09:19:59;6.95;;;5.72;;
51806;SDS011;37865;51.304;9.536;2023-08-12T09:22:25;8.85;;;6.22;;
51806;SDS011;37865;51.304;9.536;2023-08-12T09:24:57;6.57;;;5.28;;
51806;SDS011;37865;51.304;9.536;2023-08-12T09:27:23;9.48;;;4.72;;
51806;SDS011;37865;51.304;9.536;2023-08-12T09:29:49;12.25;;;5.18;;
51806;SDS011;37865;51.304;9.536;2023-08-12T09:32:18;7.22;;;4.20;;
51806;SDS011;37865;51.304;9.536;2023-08-12T09:34:46;6.50;;;3.92;;
51806;SDS011;37865;51.304;9.536;2023-08-12T09:37:14;9.20;;;4.18;;
51806;SDS011;37865;51.304;9.536;2023-08-12T09:39:40;5.75;;;4.18;;
51806;SDS011;37865;51.304;9.536;2023-08-12T09:42:06;4.70;;;4.18;;
51806;SDS011;37865;51.304;9.536;2023-08-12T09:44:34;5.05;;;3.78;;
51806;SDS011;37865;51.304;9.536;2023-08-12T09:47:00;4.80;;;3.60;;
51806;SDS011;37865;51.304;9.536;2023-08-12T09:49:26;9.43;;;3.90;;
51806;SDS011;37865;51.304;9.536;2023-08-12T09:51:52;7.18;;;3.40;;
51806;SDS011;37865;51.304;9.536;2023-08-12T09:54:18;5.95;;;4.45;;
51806;SDS011;37865;51.304;9.536;2023-08-12T09:56:45;4.13;;;3.67;;
51806;SDS011;37865;51.304;9.536;2023-08-12T09:59:12;4.30;;;3.70;;
51806;SDS011;37865;51.304;9.536;2023-08-12T10:01:44;6.13;;;3.53;;
51806;SDS011;37865;51.304;9.536;2023-08-12T10:04:11;6.43;;;3.58;;
51806;SDS011;37865;51.304;9.536;2023-08-12T10:06:40;1.80;;;1.70;;
51806;SDS011;37865;51.304;9.536;2023-08-12T10:09:05;4.15;;;2.30;;
51806;SDS011;37865;51.304;9.536;2023-08-12T10:11:33;3.72;;;2.88;;
51806;SDS011;37865;51.304;9.536;2023-08-12T10:13:59;3.08;;;2.80;;
51806;SDS011;37865;51.304;9.536;2023-08-12T10:16:25;3.47;;;2.38;;
51806;SDS011;37865;51.304;9.536;2023-08-12T10:18:54;9.63;;;3.47;;
51806;SDS011;37865;51.304;9.536;2023-08-12T10:21:20;4.53;;;3.47;;
51806;SDS011;37865;51.304;9.536;2023-08-12T10:23:47;3.95;;;3.28;;
51806;SDS011;37865;51.304;9.536;2023-08-12T10:26:15;4.25;;;3.22;;
51806;SDS011;37865;51.304;9.536;2023-08-12T10:28:42;3.50;;;3.20;;
51806;SDS011;37865;51.304;9.536;2023-08-12T10:31:07;3.47;;;3.05;;
51806;SDS011;37865;51.304;9.536;2023-08-12T10:33:36;3.38;;;3.08;;
51806;SDS011;37865;51.304;9.536;2023-08-12T10:36:03;2.75;;;2.28;;
51806;SDS011;37865;51.304;9.536;2023-08-12T10:38:28;6.03;;;3.38;;
51806;SDS011;37865;51.304;9.536;2023-08-12T10:41:01;4.25;;;2.80;;
51806;SDS011;37865;51.304;9.536;2023-08-12T10:43:53;5.50;;;3.53;;
51806;SDS011;37865;51.304;9.536;2023-08-12T10:46:30;3.97;;;3.47;;
51806;SDS011;37865;51.304;9.536;2023-08-12T10:49:10;4.03;;;3.03;;
51806;SDS011;37865;51.304;9.536;2023-08-12T10:51:39;3.42;;;3.05;;
51806;SDS011;37865;51.304;9.536;2023-08-12T10:54:15;5.65;;;3.55;;
51806;SDS011;37865;51.304;9.536;2023-08-12T11:02:20;4.35;;;3.67;;
51806;SDS011;37865;51.304;9.536;2023-08-12T11:05:01;5.70;;;4.57;;
51806;SDS011;37865;51.304;9.536;2023-08-12T11:07:33;5.38;;;3.75;;
51806;SDS011;37865;51.304;9.536;2023-08-12T11:10:22;8.30;;;3.35;;
51806;SDS011;37865;51.304;9.536;2023-08-12T11:18:14;3.40;;;2.42;;
51806;SDS011;37865;51.304;9.536;2023-08-12T11:20:45;23.98;;;3.22;;
51806;SDS011;37865;51.304;9.536;2023-08-12T11:23:12;3.58;;;3.28;;
51806;SDS011;37865;51.304;9.536;2023-08-12T11:25:39;4.35;;;3.45;;
51806;SDS011;37865;51.304;9.536;2023-08-12T11:28:05;3.72;;;3.40;;
51806;SDS011;37865;51.304;9.536;2023-08-12T11:30:32;7.32;;;3.00;;
51806;SDS011;37865;51.304;9.536;2023-08-12T11:32:58;3.00;;;2.40;;
51806;SDS011;37865;51.304;9.536;2023-08-12T11:35:24;2.90;;;2.70;;
51806;SDS011;37865;51.304;9.536;2023-08-12T11:37:53;4.88;;;3.08;;
51806;SDS011;37865;51.304;9.536;2023-08-12T11:40:21;2.72;;;2.47;;
51806;SDS011;37865;51.304;9.536;2023-08-12T11:42:48;5.47;;;2.55;;
51806;SDS011;37865;51.304;9.536;2023-08-12T11:45:16;2.75;;;2.55;;
51806;SDS011;37865;51.304;9.536;2023-08-12T11:47:43;4.57;;;3.35;;
51806;SDS011;37865;51.304;9.536;2023-08-12T11:50:11;4.28;;;2.92;;
51806;SDS011;37865;51.304;9.536;2023-08-12T11:52:37;3.45;;;2.40;;
51806;SDS011;37865;51.304;9.536;2023-08-12T11:55:04;6.03;;;2.45;;
51806;SDS011;37865;51.304;9.536;2023-08-12T11:57:31;3.25;;;2.90;;
51806;SDS011;37865;51.304;9.536;2023-08-12T12:02:38;2.83;;;2.47;;
51806;SDS011;37865;51.304;9.536;2023-08-12T12:05:07;2.65;;;2.00;;
51806;SDS011;37865;51.304;9.536;2023-08-12T12:07:33;3.90;;;2.50;;
51806;SDS011;37865;51.304;9.536;2023-08-12T12:09:59;2.58;;;1.98;;
51806;SDS011;37865;51.304;9.536;2023-08-12T12:12:24;2.25;;;2.05;;
51806;SDS011;37865;51.304;9.536;2023-08-12T12:14:52;2.92;;;2.55;;
51806;SDS011;37865;51.304;9.536;2023-08-12T12:17:22;2.80;;;2.25;;
51806;SDS011;37865;51.304;9.536;2023-08-12T12:19:55;2.13;;;1.92;;
51806;SDS011;37865;51.304;9.536;2023-08-12T12:22:27;1.70;;;1.60;;
51806;SDS011;37865;51.304;9.536;2023-08-12T12:24:53;3.17;;;2.13;;
51806;SDS011;37865;51.304;9.536;2023-08-12T12:27:19;2.20;;;2.05;;
51806;SDS011;37865;51.304;9.536;2023-08-12T12:29:44;1.75;;;1.65;;
51806;SDS011;37865;51.304;9.536;2023-08-12T12:32:09;1.48;;;1.38;;
51806;SDS011;37865;51.304;9.536;2023-08-12T12:34:35;2.90;;;2.20;;
51806;SDS011;37865;51.304;9.536;2023-08-12T12:37:00;2.47;;;2.28;;
51806;SDS011;37865;51.304;9.536;2023-08-12T12:39:26;3.58;;;2.35;;
51806;SDS011;37865;51.304;9.536;2023-08-12T12:41:51;2.22;;;2.03;;
51806;SDS011;37865;51.304;9.536;2023-08-12T12:44:17;1.90;;;1.73;;
51806;SDS011;37865;51.304;9.536;2023-08-12T12:46:42;2.75;;;2.13;;
51806;SDS011;37865;51.304;9.536;2023-08-12T12:49:07;2.40;;;1.88;;
51806;SDS011;37865;51.304;9.536;2023-08-12T12:51:32;3.45;;;2.28;;
51806;SDS011;37865;51.304;9.536;2023-08-12T12:53:58;2.30;;;2.15;;
51806;SDS011;37865;51.304;9.536;2023-08-12T12:56:23;2.03;;;1.92;;
51806;SDS011;37865;51.304;9.536;2023-08-12T12:58:49;4.57;;;2.13;;
51806;SDS011;37865;51.304;9.536;2023-08-12T13:01:14;2.72;;;2.33;;
51806;SDS011;37865;51.304;9.536;2023-08-12T13:03:39;8.25;;;2.55;;
51806;SDS011;37865;51.304;9.536;2023-08-12T13:06:05;7.00;;;2.50;;
51806;SDS011;37865;51.304;9.536;2023-08-12T13:08:30;2.75;;;2.55;;
51806;SDS011;37865;51.304;9.536;2023-08-12T13:10:56;2.13;;;1.95;;
51806;SDS011;37865;51.304;9.536;2023-08-12T13:13:22;2.88;;;2.47;;
51806;SDS011;37865;51.304;9.536;2023-08-12T13:15:47;2.83;;;2.53;;
51806;SDS011;37865;51.304;9.536;2023-08-12T13:18:12;4.78;;;2.63;;
51806;SDS011;37865;51.304;9.536;2023-08-12T13:20:38;3.50;;;2.75;;
51806;SDS011;37865;51.304;9.536;2023-08-12T13:23:03;3.40;;;2.72;;
51806;SDS011;37865;51.304;9.536;2023-08-12T13:25:32;9.73;;;3.42;;
51806;SDS011;37865;51.304;9.536;2023-08-12T13:27:58;2.42;;;2.22;;
51806;SDS011;37865;51.304;9.536;2023-08-12T13:30:25;3.10;;;2.50;;
51806;SDS011;37865;51.304;9.536;2023-08-12T13:32:50;15.15;;;2.95;;
51806;SDS011;37865;51.304;9.536;2023-08-12T13:35:16;3.03;;;2.80;;
51806;SDS011;37865;51.304;9.536;2023-08-12T13:37:42;3.22;;;2.92;;
51806;SDS011;37865;51.304;9.536;2023-08-12T13:40:07;5.38;;;3.38;;
51806;SDS011;37865;51.304;9.536;2023-08-12T13:42:34;2.80;;;2.35;;
51806;SDS011;37865;51.304;9.536;2023-08-12T13:44:59;4.97;;;4.35;;
51806;SDS011;37865;51.304;9.536;2023-08-12T13:47:25;4.25;;;2.60;;
51806;SDS011;37865;51.304;9.536;2023-08-12T13:49:50;3.10;;;2.72;;
51806;SDS011;37865;51.304;9.536;2023-08-12T13:52:16;3.95;;;3.08;;
51806;SDS011;37865;51.304;9.536;2023-08-12T13:54:41;3.83;;;2.58;;
51806;SDS011;37865;51.304;9.536;2023-08-12T13:57:07;9.68;;;2.97;;
51806;SDS011;37865;51.304;9.536;2023-08-12T13:59:32;2.90;;;2.58;;
51806;SDS011;37865;51.304;9.536;2023-08-12T14:01:57;2.67;;;2.47;;
51806;SDS011;37865;51.304;9.536;2023-08-12T14:04:22;5.32;;;2.72;;
51806;SDS011;37865;51.304;9.536;2023-08-12T14:06:48;6.07;;;3.60;;
51806;SDS011;37865;51.304;9.536;2023-08-12T14:09:13;2.92;;;2.25;;
51806;SDS011;37865;51.304;9.536;2023-08-12T14:11:41;3.83;;;2.75;;
51806;SDS011;37865;51.304;9.536;2023-08-12T14:14:07;3.15;;;2.85;;
51806;SDS011;37865;51.304;9.536;2023-08-12T14:16:32;2.53;;;1.88;;
51806;SDS011;37865;51.304;9.536;2023-08-12T14:18:58;2.72;;;2.45;;
51806;SDS011;37865;51.304;9.536;2023-08-12T14:21:23;1.90;;;1.80;;
51806;SDS011;37865;51.304;9.536;2023-08-12T14:23:48;2.88;;;2.40;;
51806;SDS011;37865;51.304;9.536;2023-08-12T14:26:14;2.65;;;2.05;;
51806;SDS011;37865;51.304;9.536;2023-08-12T14:28:39;2.88;;;2.40;;
51806;SDS011;37865;51.304;9.536;2023-08-12T14:31:04;3.30;;;3.00;;
51806;SDS011;37865;51.304;9.536;2023-08-12T14:33:29;3.15;;;2.88;;
51806;SDS011;37865;51.304;9.536;2023-08-12T14:35:58;6.15;;;3.67;;
51806;SDS011;37865;51.304;9.536;2023-08-12T14:38:23;3.15;;;2.72;;
51806;SDS011;37865;51.304;9.536;2023-08-12T14:40:49;3.65;;;2.65;;
51806;SDS011;37865;51.304;9.536;2023-08-12T14:43:14;5.07;;;2.85;;
51806;SDS011;37865;51.304;9.536;2023-08-12T14:45:40;2.63;;;2.42;;
51806;SDS011;37865;51.304;9.536;2023-08-12T14:48:05;6.28;;;3.92;;
51806;SDS011;37865;51.304;9.536;2023-08-12T14:50:31;7.28;;;3.58;;
51806;SDS011;37865;51.304;9.536;2023-08-12T14:52:56;3.35;;;3.05;;